createdAt,value
2019-05-17T00:01:41.644Z,30.04
2019-05-17T00:04:11.960Z,30.10
2019-05-17T00:06:42.225Z,30.15
2019-05-17T00:09:12.890Z,30.17
2019-05-17T00:11:43.661Z,30.18
2019-05-17T00:14:13.948Z,30.20
2019-05-17T00:16:46.799Z,30.25
2019-05-17T00:19:18.726Z,30.29
2019-05-17T00:21:49.005Z,30.32
2019-05-17T00:24:19.350Z,30.37
2019-05-17T00:26:49.705Z,30.38
2019-05-17T00:29:20.340Z,30.43
2019-05-17T00:31:50.999Z,30.47
2019-05-17T00:34:27.078Z,30.52
2019-05-17T00:36:57.535Z,30.54
2019-05-17T00:39:28.641Z,30.57
2019-05-17T00:42:00.819Z,30.60
2019-05-17T00:44:31.086Z,30.61
2019-05-17T00:47:01.448Z,30.66
2019-05-17T00:49:31.838Z,30.70
2019-05-17T00:52:02.442Z,30.77
2019-05-17T00:54:33.051Z,30.81
2019-05-17T00:57:10.425Z,30.85
2019-05-17T00:59:41.837Z,30.91
2019-05-17T01:02:17.378Z,30.94
2019-05-17T01:04:48.596Z,30.96
2019-05-17T01:07:18.878Z,30.99
2019-05-17T01:09:49.424Z,31.02
2019-05-17T01:12:20.182Z,31.05
2019-05-17T01:14:50.473Z,31.08
2019-05-17T01:17:22.001Z,31.11
2019-05-17T01:19:54.130Z,31.12
2019-05-17T01:22:26.294Z,31.17
2019-05-17T01:24:56.986Z,31.26
2019-05-17T01:27:27.298Z,31.25
2019-05-17T01:30:02.807Z,31.29
2019-05-17T01:32:33.105Z,31.32
2019-05-17T01:35:03.540Z,31.35
2019-05-17T01:37:36.988Z,31.38
2019-05-17T01:40:07.888Z,31.40
2019-05-17T01:42:38.171Z,31.47
2019-05-17T01:45:09.649Z,31.54
2019-05-17T01:47:39.975Z,31.61
2019-05-17T01:50:11.146Z,31.63
2019-05-17T01:52:41.448Z,31.68
2019-05-17T01:55:13.961Z,31.74
2019-05-17T01:57:47.398Z,31.77
2019-05-17T02:00:17.819Z,31.79
2019-05-17T02:02:49.923Z,31.81
2019-05-17T02:05:24.245Z,31.84
2019-05-17T02:07:56.826Z,31.94
2019-05-17T02:10:27.137Z,31.98
2019-05-17T02:12:57.552Z,32.00
2019-05-17T02:15:27.797Z,32.04
2019-05-17T02:17:58.122Z,32.09
2019-05-17T02:20:28.517Z,32.11
2019-05-17T02:22:58.939Z,32.20
2019-05-17T02:25:29.200Z,32.24
2019-05-17T02:28:01.557Z,32.28
2019-05-17T02:30:33.781Z,32.31
2019-05-17T02:33:04.570Z,32.38
2019-05-17T02:35:36.163Z,32.45
2019-05-17T02:38:06.427Z,32.46
2019-05-17T02:40:36.701Z,32.52
2019-05-17T02:43:08.657Z,32.55
2019-05-17T02:45:43.286Z,32.59
2019-05-17T02:48:13.355Z,32.64
2019-05-17T02:50:48.184Z,32.67
2019-05-17T02:53:16.653Z,32.70
2019-05-17T02:55:46.944Z,32.76
2019-05-17T02:58:17.268Z,32.81
2019-05-17T03:00:47.894Z,32.87
2019-05-17T03:03:19.605Z,32.91
2019-05-17T03:05:53.611Z,32.97
2019-05-17T03:08:23.667Z,33.04
2019-05-17T03:10:54.170Z,33.09
2019-05-17T03:13:25.020Z,33.13
2019-05-17T03:15:55.358Z,33.20
2019-05-17T03:18:25.681Z,33.26
2019-05-17T03:20:56.854Z,33.32
2019-05-17T03:23:27.708Z,33.37
2019-05-17T03:25:57.952Z,33.42
2019-05-17T03:28:28.848Z,33.49
2019-05-17T03:30:59.149Z,33.55
2019-05-17T03:33:35.876Z,33.62
2019-05-17T03:36:06.221Z,33.69
2019-05-17T03:38:36.911Z,33.75
2019-05-17T03:41:18.744Z,33.81
2019-05-17T03:43:41.282Z,33.90
2019-05-17T03:46:13.824Z,33.97
2019-05-17T03:48:43.771Z,34.06
2019-05-17T03:51:14.145Z,34.12
2019-05-17T03:53:45.267Z,34.21
2019-05-17T03:56:16.119Z,34.31
2019-05-17T03:58:46.428Z,34.39
2019-05-17T04:01:16.720Z,34.49
2019-05-17T04:03:47.855Z,34.57
2019-05-17T04:06:18.087Z,34.66
2019-05-17T04:08:48.369Z,34.77
2019-05-17T04:11:27.834Z,34.85
2019-05-17T04:13:53.731Z,34.94
2019-05-17T04:16:25.571Z,35.05
2019-05-17T04:18:56.145Z,35.15
2019-05-17T04:21:26.909Z,35.25
2019-05-17T04:23:57.188Z,35.36
2019-05-17T04:26:27.448Z,35.50
2019-05-17T04:28:57.737Z,35.58
2019-05-17T04:31:30.744Z,35.71
2019-05-17T04:34:03.060Z,35.83
2019-05-17T04:36:33.711Z,35.96
2019-05-17T04:39:07.091Z,36.07
2019-05-17T04:41:45.309Z,36.20
2019-05-17T04:44:12.848Z,36.32
2019-05-17T04:46:43.477Z,36.44
2019-05-17T04:49:16.821Z,36.58
2019-05-17T04:51:47.312Z,36.70
2019-05-17T04:54:22.526Z,36.84
2019-05-17T04:56:53.240Z,36.95
2019-05-17T04:59:24.408Z,37.05
2019-05-17T05:01:55.047Z,37.15
2019-05-17T05:04:27.670Z,37.29
2019-05-17T05:06:58.532Z,37.39
2019-05-17T05:09:32.668Z,37.51
2019-05-17T05:12:06.179Z,37.61
2019-05-17T05:14:36.133Z,37.74
2019-05-17T05:17:06.588Z,37.85
2019-05-17T05:19:37.269Z,37.95
2019-05-17T05:22:07.595Z,38.06
2019-05-17T05:24:37.955Z,38.16
2019-05-17T05:27:08.556Z,38.29
2019-05-17T05:29:41.545Z,38.38
2019-05-17T05:32:13.145Z,38.50
2019-05-17T05:34:46.323Z,38.60
2019-05-17T05:37:16.928Z,38.72
2019-05-17T05:39:47.556Z,38.82
2019-05-17T05:42:17.856Z,38.93
2019-05-17T05:44:48.171Z,39.01
2019-05-17T05:47:18.469Z,39.13
2019-05-17T05:49:48.869Z,39.24
2019-05-17T05:52:22.005Z,39.33
2019-05-17T05:54:52.356Z,39.45
2019-05-17T05:57:22.689Z,39.63
2019-05-17T05:59:53.014Z,39.82
2019-05-17T06:02:23.304Z,40.00
2019-05-17T06:04:53.640Z,40.15
2019-05-17T06:07:23.997Z,40.26
2019-05-17T06:09:54.303Z,40.39
2019-05-17T06:12:28.111Z,40.53
2019-05-17T06:14:57.897Z,40.63
2019-05-17T06:17:28.209Z,40.71
2019-05-17T06:19:59.319Z,40.85
2019-05-17T06:22:31.850Z,40.98
2019-05-17T06:25:03.864Z,41.07
2019-05-17T06:27:34.271Z,41.19
2019-05-17T06:30:08.327Z,41.32
2019-05-17T06:32:38.702Z,41.37
2019-05-17T06:35:09.428Z,41.40
2019-05-17T06:37:41.955Z,41.47
2019-05-17T06:42:45.638Z,41.68
2019-05-17T06:45:16.575Z,41.67
2019-05-17T06:47:47.490Z,41.74
2019-05-17T06:50:18.322Z,41.86
2019-05-17T06:52:53.259Z,41.89
2019-05-17T06:55:24.298Z,41.95
2019-05-17T06:57:54.742Z,41.98
2019-05-17T07:00:25.153Z,41.97
2019-05-17T07:02:55.490Z,42.05
2019-05-17T07:05:29.429Z,42.06
2019-05-17T07:08:00.276Z,42.04
2019-05-17T07:10:31.144Z,42.00
2019-05-17T07:13:02.121Z,41.98
2019-05-17T07:15:43.802Z,41.94
2019-05-17T07:18:05.909Z,41.96
2019-05-17T07:20:36.475Z,42.02
2019-05-17T07:23:06.802Z,42.05
2019-05-17T07:25:39.441Z,41.99
2019-05-17T07:28:10.754Z,41.99
2019-05-17T07:30:41.288Z,41.93
2019-05-17T07:33:11.759Z,41.89
2019-05-17T07:35:42.107Z,42.00
2019-05-17T07:38:15.455Z,41.94
2019-05-17T07:40:49.961Z,41.84
2019-05-17T07:43:20.776Z,41.76
2019-05-17T07:45:54.239Z,41.79
2019-05-17T07:48:24.668Z,41.73
2019-05-17T07:50:54.964Z,41.70
2019-05-17T07:53:25.276Z,41.66
2019-05-17T07:55:55.579Z,41.61
2019-05-17T07:58:30.020Z,41.56
2019-05-17T08:01:02.194Z,41.51
2019-05-17T08:03:34.156Z,41.34
2019-05-17T08:06:04.911Z,41.28
2019-05-17T08:08:35.782Z,41.25
2019-05-17T08:11:06.112Z,41.21
2019-05-17T08:13:39.680Z,41.19
2019-05-17T08:16:10.358Z,41.17
2019-05-17T08:18:40.772Z,41.08
2019-05-17T08:21:11.344Z,41.02
2019-05-17T08:23:44.344Z,41.05
2019-05-17T08:26:14.651Z,40.99
2019-05-17T08:28:44.978Z,41.02
2019-05-17T08:31:17.266Z,41.00
2019-05-17T08:33:49.678Z,40.90
2019-05-17T08:36:20.118Z,40.91
2019-05-17T08:38:50.927Z,40.85
2019-05-17T08:41:21.251Z,40.84
2019-05-17T08:43:51.670Z,40.71
2019-05-17T08:46:24.659Z,40.72
2019-05-17T08:48:55.088Z,40.60
2019-05-17T08:51:27.637Z,40.62
2019-05-17T08:54:00.034Z,40.51
2019-05-17T08:56:31.921Z,40.43
2019-05-17T08:59:02.411Z,40.42
2019-05-17T09:01:38.235Z,40.33
2019-05-17T09:04:09.197Z,40.23
2019-05-17T09:06:39.827Z,40.12
2019-05-17T09:09:10.572Z,40.21
2019-05-17T09:11:40.876Z,40.09
2019-05-17T09:14:11.299Z,40.03
2019-05-17T09:16:42.055Z,39.85
2019-05-17T09:19:12.493Z,39.79
2019-05-17T09:21:42.882Z,39.74
2019-05-17T09:24:15.294Z,39.72
2019-05-17T09:26:49.180Z,39.68
2019-05-17T09:29:20.079Z,39.49
2019-05-17T09:31:50.573Z,39.50
2019-05-17T09:34:20.946Z,39.39
2019-05-17T09:36:54.628Z,39.38
2019-05-17T09:39:24.752Z,39.30
2019-05-17T09:41:55.068Z,39.21
2019-05-17T09:44:25.392Z,39.20
2019-05-17T09:46:55.810Z,38.99
2019-05-17T09:49:26.222Z,38.76
2019-05-17T09:51:57.243Z,38.96
2019-05-17T09:54:41.691Z,38.96
2019-05-17T09:57:00.450Z,38.67
2019-05-17T09:59:30.997Z,38.55
2019-05-17T10:02:03.054Z,38.51
2019-05-17T10:04:33.398Z,38.53
2019-05-17T10:07:10.191Z,38.36
2019-05-17T10:09:42.101Z,38.25
2019-05-17T10:12:14.552Z,38.21
2019-05-17T10:14:44.904Z,38.10
2019-05-17T10:17:16.073Z,37.88
2019-05-17T10:19:46.532Z,37.88
2019-05-17T10:22:19.851Z,37.85
2019-05-17T10:24:49.805Z,37.73
2019-05-17T10:27:25.628Z,37.78
2019-05-17T10:29:55.973Z,37.60
2019-05-17T10:32:26.274Z,37.55
2019-05-17T10:34:56.596Z,37.45
2019-05-17T10:37:30.197Z,37.38
2019-05-17T10:40:00.018Z,37.27
2019-05-17T10:42:30.729Z,37.23
2019-05-17T10:45:01.135Z,37.10
2019-05-17T10:47:31.761Z,37.09
2019-05-17T10:50:02.793Z,36.94
2019-05-17T10:52:33.078Z,36.81
2019-05-17T10:55:03.430Z,36.75
2019-05-17T10:57:38.359Z,36.64
2019-05-17T11:00:10.159Z,36.61
2019-05-17T11:02:40.689Z,36.63
2019-05-17T11:05:11.215Z,36.38
2019-05-17T11:07:41.843Z,36.37
2019-05-17T11:10:12.592Z,36.21
2019-05-17T11:12:42.925Z,36.20
2019-05-17T11:15:14.094Z,36.00
2019-05-17T11:17:44.386Z,36.02
2019-05-17T11:20:15.263Z,35.83
2019-05-17T11:22:45.965Z,35.78
2019-05-17T11:25:19.243Z,35.73
2019-05-17T11:27:51.491Z,35.57
2019-05-17T11:30:21.783Z,35.55
2019-05-17T11:32:52.099Z,35.42
2019-05-17T11:35:24.674Z,35.31
2019-05-17T11:37:54.797Z,35.24
2019-05-17T11:40:26.460Z,35.17
2019-05-17T11:42:59.187Z,35.02
2019-05-17T11:45:32.589Z,34.97
2019-05-17T11:48:01.963Z,34.85
2019-05-17T11:50:32.396Z,34.78
2019-05-17T11:53:03.063Z,34.72
2019-05-17T11:55:35.727Z,34.64
2019-05-17T11:58:06.217Z,34.49
2019-05-17T12:00:38.105Z,34.35
2019-05-17T12:03:10.311Z,34.26
2019-05-17T12:05:40.774Z,34.24
2019-05-17T12:08:11.111Z,34.10
2019-05-17T12:10:41.593Z,34.12
2019-05-17T12:13:11.983Z,33.99
2019-05-17T12:15:51.599Z,33.90
2019-05-17T12:18:23.422Z,33.82
2019-05-17T12:20:53.728Z,33.81
2019-05-17T12:23:24.078Z,33.81
2019-05-17T12:25:54.421Z,33.63
2019-05-17T12:28:24.759Z,33.53
2019-05-17T12:30:57.558Z,33.52
2019-05-17T12:33:29.999Z,33.16
2019-05-17T12:36:00.431Z,33.27
2019-05-17T12:38:30.841Z,33.27
2019-05-17T12:41:01.514Z,33.19
2019-05-17T12:43:32.143Z,32.99
2019-05-17T12:46:02.615Z,32.87
2019-05-17T12:48:38.917Z,32.77
2019-05-17T12:51:09.269Z,32.64
2019-05-17T12:53:39.639Z,32.65
2019-05-17T12:58:35.367Z,32.58
2019-05-17T13:01:05.993Z,32.48
2019-05-17T13:03:37.967Z,32.46
2019-05-17T13:06:08.513Z,32.45
2019-05-17T13:08:43.027Z,32.39
2019-05-17T13:11:13.385Z,32.35
2019-05-17T13:13:43.966Z,32.34
2019-05-17T13:16:19.295Z,32.30
2019-05-17T13:18:49.907Z,32.24
2019-05-17T13:21:30.585Z,32.17
2019-05-17T13:24:07.927Z,32.08
2019-05-17T13:26:38.579Z,31.98
2019-05-17T13:29:10.014Z,31.91
2019-05-17T13:31:42.665Z,31.80
2019-05-17T13:34:13.000Z,31.78
2019-05-17T13:36:44.704Z,31.70
2019-05-17T13:39:16.778Z,31.64
2019-05-17T13:41:47.852Z,31.62
2019-05-17T13:44:20.763Z,31.51
2019-05-17T13:46:53.256Z,31.48
2019-05-17T13:49:23.567Z,31.41
2019-05-17T13:51:54.240Z,31.40
2019-05-17T13:54:36.169Z,31.35
2019-05-17T13:57:07.604Z,31.34
2019-05-17T13:59:40.508Z,31.20
2019-05-17T14:02:10.813Z,31.07
2019-05-17T14:04:41.913Z,30.97
2019-05-17T14:07:12.759Z,30.91
2019-05-17T14:09:43.150Z,30.85
2019-05-17T14:12:13.853Z,30.75
2019-05-17T14:14:49.108Z,30.75
2019-05-17T14:17:19.863Z,30.72
2019-05-17T14:19:51.282Z,30.75
2019-05-17T14:22:24.005Z,30.69
2019-05-17T14:24:54.616Z,30.65
2019-05-17T14:27:25.006Z,30.68
2019-05-17T14:29:56.754Z,30.66
2019-05-17T14:32:27.068Z,30.57
2019-05-17T14:34:57.393Z,30.53
2019-05-17T14:37:28.082Z,30.50
2019-05-17T14:39:59.676Z,30.47
2019-05-17T14:42:32.288Z,30.44
2019-05-17T14:45:07.271Z,30.36
2019-05-17T14:47:37.675Z,30.34
2019-05-17T14:50:08.699Z,30.31
2019-05-17T14:52:41.329Z,30.29
2019-05-17T14:55:12.062Z,30.25
2019-05-17T14:57:43.203Z,30.16
2019-05-17T15:00:14.629Z,30.08
2019-05-17T15:02:45.875Z,30.06
2019-05-17T15:05:16.388Z,30.00
2019-05-17T15:07:47.119Z,29.90
2019-05-17T15:10:18.811Z,29.83
2019-05-17T15:12:49.110Z,29.79
2019-05-17T15:15:28.000Z,29.75
2019-05-17T15:17:55.389Z,29.71
2019-05-17T15:20:25.767Z,29.71
2019-05-17T15:22:56.457Z,29.64
2019-05-17T15:25:26.736Z,29.59
2019-05-17T15:27:57.368Z,29.62
2019-05-17T15:30:29.864Z,29.57
2019-05-17T15:33:03.228Z,29.53
2019-05-17T15:35:37.750Z,29.50
2019-05-17T15:38:11.330Z,29.50
2019-05-17T15:40:42.095Z,29.45
2019-05-17T15:43:12.412Z,29.42
2019-05-17T15:45:42.868Z,29.37
2019-05-17T15:48:13.198Z,29.32
2019-05-17T15:50:45.044Z,29.31
2019-05-17T15:53:15.423Z,29.28
2019-05-17T15:55:45.821Z,29.26
2019-05-17T15:58:17.377Z,29.22
2019-05-17T16:00:52.214Z,29.15
2019-05-17T16:03:22.612Z,29.11
2019-05-17T16:05:55.691Z,29.10
2019-05-17T16:08:29.574Z,29.10
2019-05-17T16:11:01.213Z,29.04
2019-05-17T16:13:34.343Z,28.99
2019-05-17T16:16:05.033Z,28.97
2019-05-17T16:18:36.776Z,28.92
2019-05-17T16:21:09.189Z,28.88
2019-05-17T16:23:40.942Z,28.86
2019-05-17T16:26:11.556Z,28.81
2019-05-17T16:28:42.676Z,28.78
2019-05-17T16:31:13.000Z,28.72
2019-05-17T16:33:43.537Z,28.69
2019-05-17T16:36:14.380Z,28.67
2019-05-17T16:38:44.890Z,28.63
2019-05-17T16:41:15.864Z,28.59
2019-05-17T16:43:46.324Z,28.56
2019-05-17T16:46:19.260Z,28.55
2019-05-17T16:48:49.602Z,28.53
2019-05-17T16:51:21.316Z,28.49
2019-05-17T16:53:52.773Z,28.47
2019-05-17T16:56:23.158Z,28.45
2019-05-17T16:58:53.441Z,28.44
2019-05-17T17:01:23.995Z,28.41
2019-05-17T17:03:54.398Z,28.38
2019-05-17T17:06:25.382Z,28.38
2019-05-17T17:08:55.930Z,28.35
2019-05-17T17:11:28.690Z,28.33
2019-05-17T17:13:58.979Z,28.32
2019-05-17T17:16:29.386Z,28.29
2019-05-17T17:18:59.747Z,28.28
2019-05-17T17:21:30.105Z,28.27
2019-05-17T17:24:00.914Z,28.28
2019-05-17T17:26:33.633Z,28.25
2019-05-17T17:29:04.014Z,28.22
2019-05-17T17:31:34.363Z,28.21
2019-05-17T17:34:05.146Z,28.19
2019-05-17T17:36:40.322Z,28.19
2019-05-17T17:39:10.618Z,28.18
2019-05-17T17:41:41.403Z,28.16
2019-05-17T17:44:14.205Z,28.14
2019-05-17T17:46:44.479Z,28.14
2019-05-17T17:49:17.375Z,28.13
2019-05-17T17:51:47.822Z,28.11
2019-05-17T17:54:18.202Z,28.13
2019-05-17T17:56:49.175Z,28.10
2019-05-17T17:59:19.552Z,28.11
2019-05-17T18:01:50.300Z,28.09
2019-05-17T18:04:22.087Z,28.07
2019-05-17T18:06:52.452Z,28.06
2019-05-17T18:09:24.501Z,28.04
2019-05-17T18:12:05.134Z,28.04
2019-05-17T18:14:35.743Z,28.02
2019-05-17T18:17:06.072Z,28.01
2019-05-17T18:19:36.947Z,28.01
2019-05-17T18:22:07.308Z,28.00
2019-05-17T18:24:37.617Z,28.00
2019-05-17T18:27:10.408Z,27.98
2019-05-17T18:29:44.187Z,27.96
2019-05-17T18:32:21.775Z,27.96
2019-05-17T18:34:52.460Z,27.98
2019-05-17T18:37:22.725Z,27.97
2019-05-17T18:39:53.110Z,27.96
2019-05-17T18:42:23.431Z,27.96
2019-05-17T18:44:54.625Z,27.95
2019-05-17T18:47:27.851Z,27.95
2019-05-17T18:49:58.519Z,27.94
2019-05-17T18:52:28.846Z,27.94
2019-05-17T18:54:59.141Z,27.95
2019-05-17T18:57:32.348Z,27.95
2019-05-17T19:00:04.470Z,27.93
2019-05-17T19:02:35.447Z,27.93
2019-05-17T19:05:06.242Z,27.93
2019-05-17T19:07:38.195Z,27.92
2019-05-17T19:10:09.969Z,27.91
2019-05-17T19:12:40.282Z,27.92
2019-05-17T19:15:11.146Z,27.90
2019-05-17T19:17:43.180Z,27.92
2019-05-17T19:20:15.195Z,27.90
2019-05-17T19:22:47.713Z,27.90
2019-05-17T19:25:22.119Z,27.88
2019-05-17T19:27:52.484Z,27.90
2019-05-17T19:30:25.583Z,27.89
2019-05-17T19:32:55.900Z,27.90
2019-05-17T19:35:26.876Z,27.92
2019-05-17T19:37:57.787Z,27.92
2019-05-17T19:40:28.141Z,27.93
2019-05-17T19:42:59.403Z,27.94
2019-05-17T19:45:29.683Z,27.94
2019-05-17T19:48:00.023Z,27.94
2019-05-17T19:50:30.796Z,27.93
2019-05-17T19:53:10.475Z,27.94
2019-05-17T19:55:40.814Z,27.95
2019-05-17T19:58:11.449Z,27.95
2019-05-17T20:00:41.761Z,27.94
2019-05-17T20:03:12.360Z,27.94
2019-05-17T20:05:45.154Z,27.95
2019-05-17T20:08:18.308Z,27.92
2019-05-17T20:10:53.540Z,27.94
2019-05-17T20:13:24.041Z,27.94
2019-05-17T20:15:54.768Z,27.96
2019-05-17T20:18:25.087Z,27.97
2019-05-17T20:20:58.919Z,27.96
2019-05-17T20:23:43.630Z,27.98
2019-05-17T20:26:13.910Z,27.94
2019-05-17T20:28:50.442Z,27.96
2019-05-17T20:31:23.069Z,27.94
2019-05-17T20:33:54.748Z,27.97
2019-05-17T20:36:25.103Z,27.97
2019-05-17T20:38:55.584Z,28.01
2019-05-17T20:41:25.856Z,28.03
2019-05-17T20:43:56.471Z,28.08
2019-05-17T20:46:30.667Z,28.11
2019-05-17T20:49:02.003Z,28.15
2019-05-17T20:51:32.561Z,28.16
2019-05-17T20:54:03.245Z,28.19
2019-05-17T20:56:36.222Z,28.21
2019-05-17T20:59:08.999Z,28.23
2019-05-17T21:01:39.386Z,28.26
2019-05-17T21:04:09.682Z,28.29
2019-05-17T21:06:40.262Z,28.30
2019-05-17T21:09:11.011Z,28.31
2019-05-17T21:11:43.618Z,28.33
2019-05-17T21:14:14.524Z,28.35
2019-05-17T21:16:44.808Z,28.36
2019-05-17T21:19:15.422Z,28.40
2019-05-17T21:22:00.270Z,28.45
2019-05-17T21:24:31.311Z,28.48
2019-05-17T21:27:01.620Z,28.50
2019-05-17T21:29:31.979Z,28.56
2019-05-17T21:32:02.571Z,28.58
2019-05-17T21:34:32.931Z,28.62
2019-05-17T21:37:03.194Z,28.65
2019-05-17T21:39:33.532Z,28.67
2019-05-17T21:42:04.760Z,28.70
2019-05-17T21:44:35.099Z,28.74
2019-05-17T21:47:06.675Z,28.77
2019-05-17T21:49:36.937Z,28.79
2019-05-17T21:52:07.285Z,28.82
2019-05-17T21:54:40.992Z,28.84
2019-05-17T21:57:11.308Z,28.85
2019-05-17T21:59:41.905Z,28.87
2019-05-17T22:02:12.238Z,28.91
2019-05-17T22:04:42.573Z,28.96
2019-05-17T22:07:13.015Z,28.98
2019-05-17T22:09:45.156Z,28.99
2019-05-17T22:12:15.369Z,29.05
2019-05-17T22:14:45.741Z,29.09
2019-05-17T22:17:17.852Z,29.13
2019-05-17T22:19:48.156Z,29.18
2019-05-17T22:22:18.468Z,29.21
2019-05-17T22:24:48.843Z,29.25
2019-05-17T22:27:19.107Z,29.32
2019-05-17T22:29:49.445Z,29.34
2019-05-17T22:32:21.981Z,29.40
2019-05-17T22:35:00.799Z,29.41
2019-05-17T22:37:25.847Z,29.46
2019-05-17T22:39:57.356Z,29.50
2019-05-17T22:42:29.357Z,29.54
2019-05-17T22:44:59.727Z,29.58
2019-05-17T22:47:33.535Z,29.61
2019-05-17T22:50:04.153Z,29.66
2019-05-17T22:52:34.833Z,29.70
2019-05-17T22:55:07.245Z,29.74
2019-05-17T22:57:37.764Z,29.80
2019-05-17T23:00:11.667Z,29.83
2019-05-17T23:02:45.476Z,29.87
2019-05-17T23:05:15.969Z,29.91
2019-05-17T23:07:46.576Z,29.96
2019-05-17T23:10:16.858Z,30.00
2019-05-17T23:12:47.825Z,30.03
2019-05-17T23:15:18.112Z,30.08
2019-05-17T23:17:48.414Z,30.11
2019-05-17T23:20:18.731Z,30.17
2019-05-17T23:22:49.637Z,30.22
2019-05-17T23:25:20.224Z,30.25
2019-05-17T23:27:51.759Z,30.29
2019-05-17T23:30:23.236Z,30.34
2019-05-17T23:32:53.515Z,30.40
2019-05-17T23:35:23.813Z,30.43
2019-05-17T23:37:54.135Z,30.47
2019-05-17T23:40:24.421Z,30.52
2019-05-17T23:42:56.748Z,30.56
2019-05-17T23:45:28.269Z,30.62
2019-05-17T23:47:59.359Z,30.66
2019-05-17T23:50:29.653Z,30.71
2019-05-17T23:53:00.002Z,30.73
2019-05-17T23:55:30.337Z,30.79
2019-05-17T23:58:00.697Z,30.82
